Time;durP1;ratioP1;P1;durP2;ratioP2;P2;SDS_P1;SDS_P2;PMS_P1;PMS_P2;Temp;Humidity;BMP_temperature;BMP_pressure;BME280_temperature;BME280_humidity;BME280_pressure;Samples;Min_cycle;Max_cycle;Signal;HPM_P1;HPM_P2
2021/08/03 00:02:03;;;;;;;15.48;12.23;;;14.50;99.90;;;;;;4978831;28;20066;-78
2021/08/03 00:04:36;;;;;;;14.75;12.70;;;14.50;99.90;;;;;;4976336;28;20193;-78
2021/08/03 00:07:04;;;;;;;15.32;12.85;;;14.50;99.90;;;;;;4977581;28;20051;-78
2021/08/03 00:09:32;;;;;;;17.33;12.73;;;14.40;99.90;;;;;;4977670;28;20495;-78
2021/08/03 00:12:00;;;;;;;18.45;13.90;;;14.40;99.90;;;;;;4977046;28;20165;-77
2021/08/03 00:14:29;;;;;;;18.77;13.98;;;14.40;99.90;;;;;;4981223;28;20114;-80
2021/08/03 00:16:57;;;;;;;22.80;14.82;;;14.50;99.90;;;;;;4983449;28;20058;-80
2021/08/03 00:19:25;;;;;;;21.25;16.48;;;14.50;99.90;;;;;;4981919;28;20130;-80
2021/08/03 00:21:53;;;;;;;20.35;14.98;;;14.50;99.90;;;;;;4982574;28;20126;-80
2021/08/03 00:24:23;;;;;;;19.75;15.45;;;14.50;99.90;;;;;;4982199;28;20145;-81
2021/08/03 00:26:50;;;;;;;23.83;15.35;;;14.50;99.90;;;;;;4982640;28;20133;-80
2021/08/03 00:29:17;;;;;;;23.23;15.43;;;14.40;99.90;;;;;;4983577;28;20110;-79
2021/08/03 00:31:46;;;;;;;23.77;14.77;;;14.40;99.90;;;;;;4983217;28;20486;-80
2021/08/03 00:34:13;;;;;;;23.85;16.35;;;14.50;99.90;;;;;;4981580;28;20056;-80
2021/08/03 00:36:42;;;;;;;21.38;14.77;;;14.50;99.90;;;;;;4982615;28;20051;-81
2021/08/03 00:39:09;;;;;;;26.02;14.40;;;14.50;99.90;;;;;;4982171;28;20114;-80
2021/08/03 00:41:40;;;;;;;26.90;14.95;;;14.50;99.90;;;;;;4982504;28;20086;-80
2021/08/03 00:44:07;;;;;;;23.98;15.65;;;14.40;99.90;;;;;;4982596;28;20130;-80
2021/08/03 00:46:34;;;;;;;26.35;15.65;;;14.40;99.90;;;;;;4983850;28;20106;-80
2021/08/03 00:49:02;;;;;;;24.15;15.35;;;14.50;99.90;;;;;;4984493;28;20214;-80
2021/08/03 00:51:29;;;;;;;25.67;15.68;;;14.60;99.90;;;;;;4978204;28;20471;-79
2021/08/03 00:53:56;;;;;;;18.50;15.10;;;14.60;99.90;;;;;;4978652;28;20133;-80
2021/08/03 00:56:23;;;;;;;21.88;15.50;;;14.60;99.90;;;;;;4978480;28;20050;-79
2021/08/03 00:58:50;;;;;;;23.65;16.60;;;14.70;99.90;;;;;;4979362;28;20138;-79
2021/08/03 01:01:16;;;;;;;19.67;15.70;;;14.70;99.90;;;;;;4979835;28;20110;-80
2021/08/03 01:03:43;;;;;;;21.10;15.68;;;14.70;99.90;;;;;;4984110;28;20110;-80
2021/08/03 01:06:14;;;;;;;19.58;15.68;;;14.80;99.90;;;;;;4995873;23;20476;-82
2021/08/03 01:08:53;;;;;;;19.60;16.50;;;14.70;99.90;;;;;;4974434;28;20046;-82
2021/08/03 01:11:29;;;;;;;22.42;17.50;;;14.70;99.90;;;;;;4981378;28;20110;-81
2021/08/03 01:14:01;;;;;;;22.92;17.75;;;14.60;99.90;;;;;;4980421;28;20061;-82
2021/08/03 01:16:30;;;;;;;19.30;16.30;;;14.60;99.90;;;;;;4982019;28;20107;-83
2021/08/03 01:19:06;;;;;;;20.65;17.40;;;14.50;99.90;;;;;;4981488;28;20034;-84
2021/08/03 01:21:49;;;;;;;24.08;16.92;;;14.60;99.90;;;;;;4985232;28;20118;-83
2021/08/03 01:24:50;;;;;;;20.50;17.08;;;14.70;99.90;;;;;;4988532;28;20090;-82
2021/08/03 01:27:26;;;;;;;20.17;16.70;;;14.60;99.90;;;;;;4975442;28;20050;-82
2021/08/03 01:29:57;;;;;;;20.17;15.98;;;14.70;99.90;;;;;;4979374;28;20062;-82
2021/08/03 01:32:30;;;;;;;19.40;15.85;;;14.60;99.90;;;;;;4979679;28;20129;-82
2021/08/03 01:35:00;;;;;;;26.40;16.45;;;14.60;99.90;;;;;;4979472;28;20134;-85
2021/08/03 01:37:29;;;;;;;23.38;15.88;;;14.60;99.90;;;;;;4980260;28;20078;-84
2021/08/03 01:40:00;;;;;;;18.25;15.60;;;14.70;99.90;;;;;;4982075;28;20051;-83
2021/08/03 01:42:28;;;;;;;18.98;15.02;;;14.70;99.90;;;;;;4982774;28;20504;-83
2021/08/03 01:44:58;;;;;;;17.50;14.40;;;14.80;99.90;;;;;;4982318;28;20142;-83
2021/08/03 01:47:26;;;;;;;17.45;13.95;;;14.80;99.90;;;;;;4981013;28;20107;-82
2021/08/03 01:49:55;;;;;;;14.43;12.65;;;14.80;99.90;;;;;;4980386;28;20111;-83
2021/08/03 01:52:22;;;;;;;16.83;12.55;;;14.90;99.90;;;;;;4979547;28;20082;-83
2021/08/03 01:54:50;;;;;;;17.15;11.45;;;14.90;99.90;;;;;;4980415;28;20114;-83
2021/08/03 01:57:18;;;;;;;17.95;11.85;;;14.90;99.90;;;;;;4981136;28;20073;-83
2021/08/03 01:59:47;;;;;;;14.77;11.93;;;15.00;99.90;;;;;;4987598;28;20065;-83
2021/08/03 02:02:18;;;;;;;13.10;11.70;;;15.00;99.90;;;;;;4985083;28;20146;-83
2021/08/03 02:04:46;;;;;;;16.85;11.88;;;15.00;99.90;;;;;;4983925;28;20559;-84
2021/08/03 02:07:14;;;;;;;13.15;11.32;;;15.00;99.90;;;;;;4983692;28;20107;-84
2021/08/03 02:09:43;;;;;;;13.45;11.60;;;15.00;99.90;;;;;;4984903;28;20074;-84
2021/08/03 02:12:10;;;;;;;17.35;13.05;;;15.10;99.90;;;;;;4983975;28;20088;-83
2021/08/03 02:14:40;;;;;;;14.35;12.38;;;15.10;99.90;;;;;;4982029;28;20110;-82
2021/08/03 02:17:07;;;;;;;18.00;12.30;;;15.10;99.90;;;;;;4983665;28;20133;-83
2021/08/03 02:19:36;;;;;;;15.43;12.38;;;15.20;99.90;;;;;;4988257;28;20055;-83
2021/08/03 02:22:05;;;;;;;16.13;13.02;;;15.20;99.90;;;;;;4990152;28;20053;-83
2021/08/03 02:24:31;;;;;;;19.25;13.10;;;15.10;99.90;;;;;;4988987;28;20066;-83
2021/08/03 02:26:58;;;;;;;18.63;12.77;;;15.10;99.90;;;;;;4983814;28;20130;-83
2021/08/03 02:29:25;;;;;;;20.92;12.52;;;15.10;99.90;;;;;;4982165;28;20598;-84
2021/08/03 02:32:01;;;;;;;14.60;12.15;;;15.00;99.90;;;;;;4979821;28;20141;-82
2021/08/03 02:34:31;;;;;;;18.63;11.75;;;15.00;99.90;;;;;;4978490;28;20157;-84
2021/08/03 02:37:02;;;;;;;14.45;11.55;;;15.00;99.90;;;;;;4978063;28;20110;-83
2021/08/03 02:39:30;;;;;;;17.80;12.40;;;14.90;99.90;;;;;;4981914;28;20130;-84
2021/08/03 02:41:59;;;;;;;16.17;12.57;;;14.80;99.90;;;;;;4980677;28;20134;-83
2021/08/03 02:44:27;;;;;;;15.45;12.27;;;14.80;99.90;;;;;;4979576;28;20149;-82
2021/08/03 02:46:55;;;;;;;16.67;12.27;;;14.80;99.90;;;;;;4979303;28;20105;-83
2021/08/03 02:49:34;;;;;;;13.43;11.68;;;14.70;99.90;;;;;;4981870;28;20074;-82
2021/08/03 02:52:04;;;;;;;14.45;11.98;;;14.70;99.90;;;;;;4983546;28;20110;-82
2021/08/03 02:54:35;;;;;;;12.88;11.40;;;14.70;99.90;;;;;;4983840;28;20482;-82
2021/08/03 02:57:06;;;;;;;16.17;11.32;;;14.80;99.90;;;;;;4983088;28;20046;-82
2021/08/03 02:59:38;;;;;;;13.77;12.23;;;14.80;99.90;;;;;;4982550;28;20082;-82
2021/08/03 03:02:09;;;;;;;13.65;12.25;;;14.80;99.90;;;;;;4981994;28;20086;-83
2021/08/03 03:04:41;;;;;;;17.20;12.95;;;14.80;99.90;;;;;;4985200;28;20051;-82
2021/08/03 03:07:16;;;;;;;16.83;12.63;;;14.90;99.90;;;;;;4984831;28;20130;-82
2021/08/03 03:09:45;;;;;;;17.30;13.10;;;14.90;99.90;;;;;;4985268;28;20078;-81
2021/08/03 03:12:12;;;;;;;17.27;13.27;;;14.90;99.90;;;;;;4984223;28;20089;-82
2021/08/03 03:14:43;;;;;;;15.18;13.18;;;15.00;99.90;;;;;;4983203;28;20081;-81
2021/08/03 03:17:12;;;;;;;16.85;13.52;;;14.90;99.90;;;;;;4982975;28;20070;-82
2021/08/03 03:19:41;;;;;;;16.02;13.40;;;15.00;99.90;;;;;;4983118;28;20082;-83
2021/08/03 03:22:09;;;;;;;15.82;13.52;;;15.00;99.90;;;;;;4983370;28;20499;-83
2021/08/03 03:24:37;;;;;;;15.63;13.27;;;15.10;99.90;;;;;;4983223;28;20085;-83
2021/08/03 03:27:06;;;;;;;18.02;13.88;;;15.00;99.90;;;;;;4983132;28;20129;-84
2021/08/03 03:29:37;;;;;;;17.17;13.82;;;15.00;99.90;;;;;;4984409;28;20081;-84
2021/08/03 03:32:05;;;;;;;17.00;14.07;;;15.00;99.90;;;;;;4984393;28;20118;-84
2021/08/03 03:34:33;;;;;;;19.10;14.57;;;15.00;99.90;;;;;;4984455;28;20114;-84
2021/08/03 03:37:01;;;;;;;18.02;15.32;;;15.00;99.90;;;;;;4984548;28;20133;-84
2021/08/03 03:39:30;;;;;;;21.70;15.38;;;15.00;99.90;;;;;;4984852;28;20069;-83
2021/08/03 03:42:01;;;;;;;17.95;15.60;;;14.90;99.90;;;;;;4984749;28;20074;-83
2021/08/03 03:44:28;;;;;;;18.10;15.85;;;15.00;99.90;;;;;;4984696;28;20050;-85
2021/08/03 03:46:58;;;;;;;18.02;16.13;;;14.90;99.90;;;;;;4992409;28;20078;-84
2021/08/03 03:49:27;;;;;;;20.02;16.83;;;14.80;99.90;;;;;;4993360;28;20050;-83
2021/08/03 03:51:56;;;;;;;23.17;15.80;;;14.90;99.90;;;;;;4991592;28;20085;-83
2021/08/03 03:54:27;;;;;;;20.08;16.70;;;14.80;99.90;;;;;;4985530;28;20535;-83
2021/08/03 03:56:59;;;;;;;19.73;16.80;;;14.80;99.90;;;;;;4983019;28;20043;-83
2021/08/03 03:59:26;;;;;;;21.02;16.42;;;14.70;99.90;;;;;;4982965;28;20082;-83
2021/08/03 04:01:57;;;;;;;19.67;17.52;;;14.80;99.90;;;;;;4982388;28;20065;-83
2021/08/03 04:04:25;;;;;;;21.27;16.88;;;14.70;99.90;;;;;;4982119;28;20472;-83
2021/08/03 04:06:52;;;;;;;18.65;16.45;;;14.70;99.90;;;;;;4983043;28;20057;-83
2021/08/03 04:09:20;;;;;;;18.92;15.88;;;14.70;99.90;;;;;;4983401;28;20715;-83
2021/08/03 04:11:47;;;;;;;21.90;15.68;;;14.70;99.90;;;;;;4983869;28;20078;-83
2021/08/03 04:14:19;;;;;;;23.17;17.15;;;14.70;99.90;;;;;;4984227;28;20146;-83
2021/08/03 04:16:46;;;;;;;20.65;16.25;;;14.80;99.90;;;;;;4984209;28;20054;-83
2021/08/03 04:19:13;;;;;;;22.02;16.98;;;14.90;99.90;;;;;;4986030;28;20100;-84
2021/08/03 04:21:40;;;;;;;25.80;17.05;;;14.90;99.90;;;;;;4985356;28;20117;-84
2021/08/03 04:24:07;;;;;;;24.88;17.05;;;14.80;99.90;;;;;;4985232;28;20051;-84
2021/08/03 04:26:33;;;;;;;21.10;16.55;;;14.90;99.90;;;;;;4985071;28;20054;-84
2021/08/03 04:29:00;;;;;;;20.95;17.30;;;14.90;99.90;;;;;;4985403;28;20089;-84
2021/08/03 04:31:28;;;;;;;23.13;16.73;;;14.90;99.90;;;;;;4985260;28;20125;-83
2021/08/03 04:33:55;;;;;;;24.10;16.67;;;14.90;99.90;;;;;;4981061;28;20081;-84
2021/08/03 04:36:24;;;;;;;26.17;17.40;;;15.00;99.90;;;;;;4981683;28;20091;-85
2021/08/03 04:38:51;;;;;;;21.88;17.05;;;15.00;99.90;;;;;;4982221;28;20051;-84
2021/08/03 04:41:18;;;;;;;18.20;16.00;;;15.10;99.90;;;;;;4981894;28;20078;-83
2021/08/03 04:43:45;;;;;;;22.13;15.68;;;15.10;99.90;;;;;;4981478;28;20101;-82
2021/08/03 04:46:12;;;;;;;19.90;16.05;;;15.00;99.90;;;;;;4980659;28;20089;-83
2021/08/03 04:48:41;;;;;;;21.33;16.23;;;15.10;99.90;;;;;;4981441;28;20452;-82
2021/08/03 04:51:08;;;;;;;20.80;16.33;;;15.10;99.90;;;;;;4980688;28;20137;-83
2021/08/03 04:53:35;;;;;;;20.55;16.70;;;15.00;99.90;;;;;;4985292;28;20051;-83
2021/08/03 04:56:02;;;;;;;20.42;16.83;;;15.00;99.90;;;;;;4982098;28;20054;-82
2021/08/03 04:58:29;;;;;;;22.98;17.27;;;14.90;99.90;;;;;;4984986;28;20106;-84
2021/08/03 05:00:55;;;;;;;18.52;16.15;;;14.90;99.90;;;;;;4988642;28;20061;-83
2021/08/03 05:03:22;;;;;;;20.60;16.52;;;14.90;99.90;;;;;;4983232;28;20137;-81
2021/08/03 05:05:51;;;;;;;20.02;16.75;;;14.90;99.90;;;;;;4982952;28;20058;-82
2021/08/03 05:08:17;;;;;;;21.75;16.85;;;14.90;99.90;;;;;;4982261;28;20149;-83
2021/08/03 05:10:44;;;;;;;22.63;16.60;;;14.90;99.90;;;;;;4980965;28;20055;-83
2021/08/03 05:13:11;;;;;;;20.20;16.67;;;14.90;99.90;;;;;;4980565;28;20071;-82
2021/08/03 05:15:38;;;;;;;17.48;15.32;;;14.90;99.90;;;;;;4980541;28;20110;-81
2021/08/03 05:18:05;;;;;;;19.15;16.80;;;15.00;99.90;;;;;;4980849;28;20047;-82
2021/08/03 05:20:32;;;;;;;17.98;15.07;;;15.00;99.90;;;;;;4980973;28;20055;-84
2021/08/03 05:23:01;;;;;;;20.85;15.55;;;15.10;99.90;;;;;;4983338;28;20047;-82
2021/08/03 05:25:28;;;;;;;22.00;16.15;;;15.10;99.90;;;;;;4986854;28;20081;-85
2021/08/03 05:27:54;;;;;;;20.15;16.13;;;15.00;99.90;;;;;;4985686;28;20073;-84
2021/08/03 05:30:21;;;;;;;19.48;14.80;;;15.00;99.90;;;;;;4980922;28;20053;-85
2021/08/03 05:32:48;;;;;;;18.80;15.40;;;15.00;99.90;;;;;;4980721;28;20137;-83
2021/08/03 05:35:15;;;;;;;21.20;15.30;;;15.00;99.90;;;;;;4982059;28;20556;-83
2021/08/03 05:37:42;;;;;;;17.95;14.55;;;15.00;99.90;;;;;;4981831;28;20134;-83
2021/08/03 05:40:12;;;;;;;19.48;15.73;;;15.00;99.90;;;;;;4981061;28;20085;-82
2021/08/03 05:42:40;;;;;;;21.27;14.02;;;15.10;99.90;;;;;;4981038;28;20054;-82
2021/08/03 05:45:08;;;;;;;20.98;15.48;;;15.20;99.90;;;;;;4981758;28;20088;-80
2021/08/03 05:47:35;;;;;;;22.58;14.75;;;15.20;99.90;;;;;;4979106;28;20078;-83
2021/08/03 05:50:02;;;;;;;19.50;15.02;;;15.30;99.90;;;;;;4980187;28;20106;-81
2021/08/03 05:52:29;;;;;;;16.00;13.60;;;15.30;99.90;;;;;;4981477;28;20046;-82
2021/08/03 05:54:56;;;;;;;22.63;14.70;;;15.50;99.90;;;;;;4980264;28;20182;-84
2021/08/03 05:57:24;;;;;;;15.63;13.23;;;15.50;99.90;;;;;;4979496;28;20055;-82
2021/08/03 05:59:51;;;;;;;18.33;14.65;;;15.60;99.90;;;;;;4980458;28;20054;-81
2021/08/03 06:02:18;;;;;;;17.85;14.45;;;15.60;99.90;;;;;;4978611;28;20519;-81
2021/08/03 06:04:45;;;;;;;23.00;13.93;;;15.60;99.90;;;;;;4980181;28;20058;-83
2021/08/03 06:07:15;;;;;;;19.73;14.48;;;15.60;99.90;;;;;;4983347;28;20089;-82
2021/08/03 06:09:43;;;;;;;21.23;13.98;;;15.60;99.90;;;;;;4981483;28;20053;-82
2021/08/03 06:12:11;;;;;;;16.77;13.00;;;15.50;99.90;;;;;;4982246;28;20051;-82
2021/08/03 06:14:44;;;;;;;17.38;14.07;;;15.60;99.90;;;;;;4985067;28;20050;-83
2021/08/03 06:17:13;;;;;;;20.25;14.05;;;15.60;99.90;;;;;;4981143;28;20069;-83
2021/08/03 06:19:43;;;;;;;19.33;13.52;;;15.70;99.90;;;;;;4981037;28;20567;-81
2021/08/03 06:22:10;;;;;;;18.67;13.82;;;15.70;99.90;;;;;;4979428;28;20047;-81
2021/08/03 06:24:38;;;;;;;17.77;13.30;;;15.70;99.90;;;;;;4978607;28;20427;-81
2021/08/03 06:27:10;;;;;;;22.42;13.70;;;15.70;99.90;;;;;;4980791;28;20057;-83
2021/08/03 06:29:39;;;;;;;19.85;13.38;;;15.80;99.90;;;;;;4980426;28;20047;-82
2021/08/03 06:32:08;;;;;;;19.05;13.75;;;15.90;99.90;;;;;;4983167;28;20139;-84
2021/08/03 06:34:39;;;;;;;18.50;13.55;;;16.00;99.90;;;;;;4983548;28;20184;-83
2021/08/03 06:39:47;;;;;;;19.77;12.88;;;16.10;99.90;;;;;;4985555;28;20062;-83
2021/08/03 06:42:22;;;;;;;16.65;12.80;;;16.20;99.90;;;;;;4984903;28;20054;-82
2021/08/03 06:44:54;;;;;;;15.23;13.32;;;16.20;99.90;;;;;;4983567;28;20145;-83
2021/08/03 06:47:26;;;;;;;15.30;12.15;;;16.30;99.90;;;;;;4985014;28;20047;-83
2021/08/03 06:49:54;;;;;;;17.87;13.17;;;16.30;99.90;;;;;;4992694;28;20039;-83
2021/08/03 06:52:25;;;;;;;17.90;12.88;;;16.30;99.90;;;;;;4991722;28;20294;-83
2021/08/03 06:54:59;;;;;;;15.52;12.88;;;16.20;99.90;;;;;;4986338;28;20074;-81
2021/08/03 06:57:27;;;;;;;17.50;13.30;;;16.20;99.90;;;;;;4989020;28;20078;-83
2021/08/03 07:00:01;;;;;;;18.02;14.15;;;16.20;99.90;;;;;;4988631;28;20610;-83
2021/08/03 07:02:30;;;;;;;15.63;13.98;;;16.20;99.90;;;;;;4984790;28;20051;-84
2021/08/03 07:05:03;;;;;;;17.67;13.48;;;16.40;99.90;;;;;;5006364;23;20089;-80
2021/08/03 07:07:31;;;;;;;15.88;14.00;;;16.40;99.90;;;;;;4957442;29;20571;-78
2021/08/03 07:10:01;;;;;;;18.38;13.52;;;16.50;99.90;;;;;;4937730;29;20512;-77
2021/08/03 07:12:29;;;;;;;19.70;13.95;;;16.60;99.90;;;;;;4935607;29;20079;-77
2021/08/03 07:15:04;;;;;;;18.10;13.80;;;16.60;99.90;;;;;;4937439;29;20047;-76
2021/08/03 07:17:32;;;;;;;15.07;12.75;;;16.70;99.90;;;;;;4937553;29;20048;-76
2021/08/03 07:20:02;;;;;;;18.40;13.40;;;16.60;99.90;;;;;;4938696;29;20141;-76
2021/08/03 07:22:31;;;;;;;16.80;14.02;;;16.60;99.90;;;;;;4936274;29;20076;-77
2021/08/03 07:25:01;;;;;;;16.20;12.50;;;16.70;99.90;;;;;;4935719;29;20142;-78
2021/08/03 07:27:28;;;;;;;17.08;13.30;;;16.80;99.90;;;;;;4935773;29;20115;-77
2021/08/03 07:29:58;;;;;;;17.10;13.57;;;16.80;99.90;;;;;;4935851;29;20052;-76
2021/08/03 07:32:26;;;;;;;18.23;14.25;;;16.90;99.90;;;;;;4936180;29;20708;-76
2021/08/03 07:34:56;;;;;;;19.38;13.98;;;16.80;99.90;;;;;;4935956;29;20062;-78
2021/08/03 07:37:26;;;;;;;15.05;13.23;;;16.80;99.90;;;;;;4941659;29;20048;-77
2021/08/03 07:39:53;;;;;;;16.35;12.60;;;16.80;99.90;;;;;;4939751;29;20059;-78
2021/08/03 07:42:20;;;;;;;14.32;12.75;;;16.80;99.90;;;;;;4939831;29;20082;-78
2021/08/03 07:44:47;;;;;;;15.63;12.55;;;16.90;99.90;;;;;;4938873;29;20480;-78
2021/08/03 07:47:14;;;;;;;17.33;12.93;;;16.90;99.90;;;;;;4938553;29;20090;-79
2021/08/03 07:49:45;;;;;;;14.45;12.57;;;16.90;99.90;;;;;;4939867;29;20127;-81
2021/08/03 07:52:12;;;;;;;15.25;12.82;;;17.00;99.90;;;;;;4940413;29;20060;-78
2021/08/03 07:54:39;;;;;;;18.50;12.82;;;17.10;99.90;;;;;;4946629;29;20087;-79
2021/08/03 07:57:06;;;;;;;16.17;12.40;;;17.20;99.90;;;;;;4955118;28;20082;-79
2021/08/03 07:59:33;;;;;;;15.48;13.00;;;17.00;99.90;;;;;;4956728;28;20086;-78
2021/08/03 08:02:00;;;;;;;18.05;12.38;;;17.10;99.90;;;;;;4958581;28;20086;-77
2021/08/03 08:04:27;;;;;;;13.65;12.25;;;17.20;99.90;;;;;;4958462;28;20082;-78
2021/08/03 08:06:55;;;;;;;15.90;12.60;;;17.10;99.90;;;;;;4955039;28;20492;-77
2021/08/03 08:09:22;;;;;;;13.90;12.10;;;17.20;99.90;;;;;;4955804;29;20251;-77
2021/08/03 08:11:49;;;;;;;14.20;11.77;;;17.30;99.90;;;;;;4955856;28;20082;-77
2021/08/03 08:14:16;;;;;;;14.23;11.85;;;17.40;99.90;;;;;;4955380;28;20087;-77
2021/08/03 08:16:43;;;;;;;14.73;11.88;;;17.60;99.90;;;;;;4958134;28;20134;-77
2021/08/03 08:19:10;;;;;;;14.48;11.40;;;17.70;99.90;;;;;;4957920;28;20130;-76
2021/08/03 08:21:37;;;;;;;15.90;11.40;;;17.80;99.90;;;;;;4958696;28;20047;-76
2021/08/03 08:24:09;;;;;;;14.85;11.45;;;17.90;99.90;;;;;;4960204;28;20059;-76
2021/08/03 08:26:36;;;;;;;12.80;11.13;;;18.10;99.90;;;;;;4956827;28;20146;-76
2021/08/03 08:29:03;;;;;;;15.35;10.20;;;18.40;99.90;;;;;;4956151;28;20051;-76
2021/08/03 08:31:30;;;;;;;13.90;10.55;;;18.70;99.90;;;;;;4955664;28;20054;-76
2021/08/03 08:33:56;;;;;;;13.35;11.32;;;19.20;99.90;;;;;;4953855;28;20047;-77
2021/08/03 08:36:23;;;;;;;14.27;9.93;;;19.40;99.90;;;;;;4954389;28;20360;-77
2021/08/03 08:38:50;;;;;;;16.33;9.15;;;19.50;99.90;;;;;;4956082;28;20135;-77
2021/08/03 08:41:19;;;;;;;12.38;9.70;;;19.20;99.90;;;;;;4956420;28;20734;-77
2021/08/03 08:43:46;;;;;;;12.85;10.27;;;19.00;99.90;;;;;;4955810;28;20065;-79
2021/08/03 08:46:13;;;;;;;14.43;10.38;;;18.70;99.90;;;;;;4952262;28;20089;-77
2021/08/03 08:48:40;;;;;;;15.88;9.77;;;18.50;99.90;;;;;;4955618;28;20130;-77
2021/08/03 08:51:07;;;;;;;12.95;9.70;;;18.40;99.90;;;;;;4957077;28;20075;-76
2021/08/03 08:53:35;;;;;;;12.57;10.15;;;18.30;99.90;;;;;;4955762;29;20043;-79
2021/08/03 08:56:02;;;;;;;11.13;9.07;;;18.20;99.90;;;;;;4956145;28;20126;-77
2021/08/03 08:58:33;;;;;;;13.30;8.98;;;18.10;99.90;;;;;;4956321;28;20513;-77
2021/08/03 09:01:01;;;;;;;10.88;9.63;;;18.00;99.90;;;;;;4954887;29;20106;-80
2021/08/03 09:03:28;;;;;;;11.95;8.95;;;17.80;99.90;;;;;;4954882;28;20134;-77
2021/08/03 09:06:00;;;;;;;11.88;8.80;;;17.80;99.90;;;;;;4944547;28;20054;-76
2021/08/03 09:08:36;;;;;;;11.23;8.70;;;18.00;99.90;;;;;;4945975;29;20067;-77
2021/08/03 09:11:07;;;;;;;10.43;7.88;;;18.50;99.90;;;;;;4955923;28;20039;-81
2021/08/03 09:13:52;;;;;;;10.45;7.70;;;19.00;99.90;;;;;;4958049;28;20055;-79
2021/08/03 09:16:20;;;;;;;9.50;8.18;;;19.60;99.90;;;;;;4957616;29;20158;-80
2021/08/03 09:18:47;;;;;;;11.20;8.60;;;19.90;99.90;;;;;;4960321;28;20074;-83
2021/08/03 09:21:22;;;;;;;9.68;8.70;;;20.00;99.90;;;;;;4943136;29;20059;-81
2021/08/03 09:23:51;;;;;;;9.32;8.20;;;19.90;99.90;;;;;;4951515;29;20085;-80
2021/08/03 09:26:20;;;;;;;10.27;8.15;;;19.90;99.90;;;;;;4966476;28;20050;-79
2021/08/03 09:29:03;;;;;;;10.98;8.48;;;20.00;99.90;;;;;;4966692;28;20127;-80
2021/08/03 09:31:31;;;;;;;10.63;9.20;;;20.30;99.90;;;;;;4959183;29;20129;-81
2021/08/03 09:33:59;;;;;;;8.85;7.93;;;20.20;99.90;;;;;;4961453;28;20125;-80
2021/08/03 09:36:49;;;;;;;10.63;9.40;;;20.30;99.90;;;;;;4952914;28;20055;-81
2021/08/03 09:39:44;;;;;;;9.73;8.50;;;20.30;99.90;;;;;;4959966;29;20057;-82
2021/08/03 09:42:14;;;;;;;9.75;8.30;;;20.30;99.90;;;;;;4959511;29;20086;-82
2021/08/03 09:44:50;;;;;;;10.88;8.38;;;20.20;99.90;;;;;;4958917;29;20047;-83
2021/08/03 09:47:18;;;;;;;8.85;7.95;;;20.10;99.90;;;;;;4959247;28;20098;-83
2021/08/03 09:49:48;;;;;;;10.80;8.80;;;19.90;99.90;;;;;;4959745;28;20114;-80
2021/08/03 09:52:18;;;;;;;10.02;8.07;;;19.40;99.90;;;;;;4947029;29;20542;-79
2021/08/03 09:54:44;;;;;;;9.07;8.18;;;19.40;99.90;;;;;;4958399;29;20047;-80
2021/08/03 09:57:23;;;;;;;9.25;8.20;;;19.20;99.90;;;;;;4955713;29;20051;-79
2021/08/03 09:59:53;;;;;;;10.68;8.57;;;19.00;99.90;;;;;;4957163;28;20075;-79
2021/08/03 10:02:22;;;;;;;10.48;8.68;;;19.10;99.90;;;;;;4968355;28;20134;-79
2021/08/03 10:04:50;;;;;;;10.13;8.77;;;19.00;99.90;;;;;;4963200;28;20095;-81
2021/08/03 10:07:17;;;;;;;10.05;9.00;;;18.90;99.90;;;;;;4967440;28;20074;-81
2021/08/03 10:09:45;;;;;;;9.48;8.27;;;18.80;99.90;;;;;;4979065;28;20057;-81
2021/08/03 10:12:12;;;;;;;10.27;8.57;;;18.60;99.90;;;;;;4979999;28;20109;-81
2021/08/03 10:14:40;;;;;;;10.90;7.93;;;18.60;99.90;;;;;;4978995;28;20059;-79
2021/08/03 10:17:09;;;;;;;11.38;8.82;;;18.60;99.90;;;;;;4979933;28;20063;-81
2021/08/03 10:19:41;;;;;;;11.32;8.63;;;18.30;99.90;;;;;;4980987;28;20051;-80
2021/08/03 10:22:17;;;;;;;11.82;9.52;;;18.20;99.90;;;;;;4963556;28;20142;-81
2021/08/03 10:24:55;;;;;;;10.60;9.48;;;18.00;99.90;;;;;;4967313;28;20146;-80
2021/08/03 10:27:21;;;;;;;10.00;9.00;;;17.90;99.90;;;;;;4959372;29;20428;-80
2021/08/03 10:29:50;;;;;;;12.20;9.60;;;17.90;99.90;;;;;;4967253;28;20114;-80
2021/08/03 10:32:39;;;;;;;13.75;9.38;;;17.80;99.90;;;;;;4976981;28;20428;-81
2021/08/03 10:35:07;;;;;;;11.48;8.98;;;17.90;99.90;;;;;;4972752;28;20055;-81
2021/08/03 10:38:08;;;;;;;13.02;9.50;;;17.80;99.90;;;;;;4958352;28;20110;-80
2021/08/03 10:41:16;;;;;;;12.05;9.02;;;17.70;99.90;;;;;;4952752;28;20058;-79
2021/08/03 10:43:55;;;;;;;12.70;9.30;;;17.60;99.90;;;;;;4968203;28;20051;-80
2021/08/03 10:46:39;;;;;;;14.23;10.30;;;17.60;99.90;;;;;;4969751;28;20486;-81
2021/08/03 10:49:08;;;;;;;10.25;9.15;;;17.50;99.90;;;;;;4972611;28;20050;-81
2021/08/03 10:51:50;;;;;;;9.82;8.82;;;17.50;99.90;;;;;;4977119;28;20047;-81
2021/08/03 10:54:21;;;;;;;12.10;9.48;;;17.60;99.90;;;;;;4978766;28;20059;-83
2021/08/03 10:57:12;;;;;;;12.45;9.35;;;17.60;99.90;;;;;;4974220;28;20066;-81
2021/08/03 10:59:40;;;;;;;10.23;8.90;;;17.70;99.90;;;;;;4943155;28;20146;-83
2021/08/03 11:02:08;;;;;;;10.45;9.32;;;17.80;99.90;;;;;;4983607;28;20042;-80
2021/08/03 11:04:59;;;;;;;11.20;9.25;;;17.90;99.90;;;;;;4981680;28;20061;-83
2021/08/03 11:07:31;;;;;;;11.35;9.40;;;18.10;99.90;;;;;;4981109;28;20502;-83
2021/08/03 11:10:00;;;;;;;12.35;9.00;;;18.30;99.90;;;;;;4981987;28;20046;-84
2021/08/03 11:12:41;;;;;;;11.82;8.93;;;18.40;99.90;;;;;;4985900;28;20197;-83
2021/08/03 11:15:37;;;;;;;9.95;8.95;;;18.70;99.90;;;;;;4985983;28;20058;-82
2021/08/03 11:18:08;;;;;;;9.18;8.15;;;18.80;99.90;;;;;;4988639;28;20078;-81
2021/08/03 11:21:16;;;;;;;11.10;9.27;;;19.10;99.90;;;;;;4990621;28;20051;-82
2021/08/03 11:24:06;;;;;;;9.82;8.70;;;19.30;99.90;;;;;;4983553;28;20720;-82
2021/08/03 11:26:36;;;;;;;9.48;8.48;;;19.50;99.90;;;;;;4988202;28;20081;-83
2021/08/03 11:29:14;;;;;;;9.60;8.02;;;19.70;99.90;;;;;;4990545;28;20078;-81
2021/08/03 11:31:53;;;;;;;10.48;8.52;;;19.90;99.90;;;;;;4990587;28;20046;-83
2021/08/03 11:34:24;;;;;;;11.20;8.93;;;20.00;99.90;;;;;;4976797;28;20105;-81
2021/08/03 11:36:59;;;;;;;10.55;8.57;;;20.10;99.90;;;;;;4983534;28;20050;-84
2021/08/03 11:39:28;;;;;;;11.10;8.15;;;20.10;99.90;;;;;;4981617;28;20059;-81
2021/08/03 11:41:55;;;;;;;10.60;8.63;;;20.10;99.90;;;;;;4979468;28;20051;-82
2021/08/03 11:44:22;;;;;;;9.63;7.93;;;20.10;99.90;;;;;;4987651;28;20054;-81
2021/08/03 11:46:56;;;;;;;9.02;7.80;;;19.90;99.90;;;;;;4985860;28;20507;-82
2021/08/03 11:49:32;;;;;;;10.85;8.40;;;19.80;99.90;;;;;;4985363;28;20054;-80
2021/08/03 11:52:17;;;;;;;9.20;8.30;;;19.80;99.90;;;;;;4987031;28;20071;-81
2021/08/03 11:54:46;;;;;;;8.70;7.57;;;19.70;99.90;;;;;;4988300;28;20038;-81
2021/08/03 11:57:28;;;;;;;8.93;7.40;;;19.70;99.90;;;;;;4988237;28;20085;-81
2021/08/03 12:00:15;;;;;;;10.13;7.65;;;19.70;99.90;;;;;;4988174;28;20081;-80
2021/08/03 12:02:46;;;;;;;7.95;7.07;;;19.60;99.90;;;;;;4989377;28;20058;-80
2021/08/03 12:05:25;;;;;;;8.02;7.22;;;19.60;99.90;;;;;;4986606;28;20070;-81
2021/08/03 12:08:00;;;;;;;9.40;7.43;;;19.70;99.90;;;;;;4985919;28;20074;-81
2021/08/03 12:10:34;;;;;;;10.05;6.97;;;19.80;99.90;;;;;;4984318;28;20074;-82
2021/08/03 12:13:02;;;;;;;7.10;6.40;;;19.90;99.90;;;;;;4987516;28;20057;-81
2021/08/03 12:15:30;;;;;;;7.47;6.40;;;20.10;99.90;;;;;;4987980;28;20046;-81
2021/08/03 12:18:09;;;;;;;10.07;7.10;;;20.20;99.90;;;;;;4990386;28;20070;-81
2021/08/03 12:20:39;;;;;;;7.32;6.53;;;20.20;99.90;;;;;;4985319;28;20129;-80
2021/08/03 12:23:17;;;;;;;7.35;6.15;;;20.20;99.90;;;;;;4981796;28;20137;-80
2021/08/03 12:25:49;;;;;;;12.38;6.85;;;20.20;99.90;;;;;;4979724;28;20090;-80
2021/08/03 12:28:37;;;;;;;7.63;6.35;;;20.30;99.90;;;;;;4981159;28;20082;-80
2021/08/03 12:31:27;;;;;;;8.15;5.97;;;20.50;99.90;;;;;;4972591;28;20101;-79
2021/08/03 12:34:12;;;;;;;7.10;5.90;;;20.50;99.90;;;;;;4979361;28;20047;-79
2021/08/03 12:36:46;;;;;;;7.88;5.85;;;20.50;99.90;;;;;;4979717;28;20054;-80
2021/08/03 12:39:19;;;;;;;6.03;5.40;;;20.70;99.90;;;;;;4981009;28;20078;-79
2021/08/03 12:42:06;;;;;;;6.60;5.65;;;20.60;99.90;;;;;;4979586;28;20135;-80
2021/08/03 12:44:35;;;;;;;5.78;5.18;;;20.60;99.90;;;;;;4979782;28;20090;-80
2021/08/03 12:47:16;;;;;;;6.38;5.57;;;20.60;99.90;;;;;;4979607;28;20082;-80
2021/08/03 12:49:44;;;;;;;7.28;5.43;;;20.40;99.90;;;;;;4979375;28;20117;-80
2021/08/03 12:52:14;;;;;;;6.97;5.95;;;20.50;99.90;;;;;;4981577;28;20054;-81